map of GML home
GML - Airport
Location
City:  Gostomel, Kiev, Ukraine
Near (Alt.):Kiev
Name:Antonov International Airport
ICAO:UKKM
IATA:GML

Details
Type:Airport (Aerodrome, Airfield)
Use:Public/Civil, International (customs port of entry)
Latitude:5036'13"N (50.603497)
Longitude:3011'31"E (30.191933)
Elevation:517 ft (158 m)
Variation:7.73E (WMM2015 magnetic declination)
0.12 annual change
Runways:1
Longest:11483 × 184 ft (3500 × 56 m), paved

Time
Time Zone:UTC+2 (DST+3)
Local Time:

Weather
METAR:UKKM 240900Z 32002MPS 9999 SCT010 M09/M10 Q1012 R33/4992// NOSIG
TAF:UKKM 240604Z 2406/2506 35005G10MPS 9999 BKN007 BKN020
TEMPO 2406/2418 -SHSN SCT012CB
TEMPO 2418/2506 2100 -SHSN BR BKN006 SCT012CB

Related Locations
Nearby:
Farthest:CHT: 11107 mi / 17876 km
Waitangi [Tuuta], CIT, NZ

Find:

   beyond  
but within

Other Information
Maps:
NOTAMs:
Links:
Sources:

  
  • flag of Ukraine
  • flag of Kiev
  

Sectional Chart

Flight Planning
at skyvector.com

Satellite Image

Google Maps Satellite view

 

Copyright © 2004-2019 Karl L. Swartz. All rights reserved.
The Great Circle Mapper name and logo are trademarks of the Great Circle Mapper.
All other trademarks mentioned herein belong to their respective owners.
Please see credits for attibutions and further copyright information.

  Follow gcmap on Facebook Follow gcmap on Twitter Follow gcmap on Google+ GCmap on LinkedIn

hCard Microformat

Geo Microformat